sensor_id;sensor_type;location;lat;lon;timestamp;P1;durP1;ratioP1;P2;durP2;ratioP2
53207;SDS011;39093;52.788;6.940;2023-07-02T00:00:06;8.88;;;6.53;;
53207;SDS011;39093;52.788;6.940;2023-07-02T00:02:34;9.18;;;7.30;;
53207;SDS011;39093;52.788;6.940;2023-07-02T00:05:03;12.57;;;8.30;;
53207;SDS011;39093;52.788;6.940;2023-07-02T00:07:30;9.43;;;7.28;;
53207;SDS011;39093;52.788;6.940;2023-07-02T00:09:57;14.65;;;9.27;;
53207;SDS011;39093;52.788;6.940;2023-07-02T00:12:24;16.08;;;10.30;;
53207;SDS011;39093;52.788;6.940;2023-07-02T00:14:51;13.75;;;8.20;;
53207;SDS011;39093;52.788;6.940;2023-07-02T00:17:20;12.95;;;7.53;;
53207;SDS011;39093;52.788;6.940;2023-07-02T00:19:47;15.93;;;9.13;;
53207;SDS011;39093;52.788;6.940;2023-07-02T00:22:18;11.43;;;8.02;;
53207;SDS011;39093;52.788;6.940;2023-07-02T00:24:46;13.38;;;8.07;;
53207;SDS011;39093;52.788;6.940;2023-07-02T00:27:13;11.82;;;7.13;;
53207;SDS011;39093;52.788;6.940;2023-07-02T00:29:40;9.38;;;7.30;;
53207;SDS011;39093;52.788;6.940;2023-07-02T00:32:08;12.90;;;9.02;;
53207;SDS011;39093;52.788;6.940;2023-07-02T00:34:35;13.82;;;7.93;;
53207;SDS011;39093;52.788;6.940;2023-07-02T00:37:02;12.93;;;8.40;;
53207;SDS011;39093;52.788;6.940;2023-07-02T00:39:29;12.18;;;7.32;;
53207;SDS011;39093;52.788;6.940;2023-07-02T00:42:00;11.38;;;7.15;;
53207;SDS011;39093;52.788;6.940;2023-07-02T00:44:30;15.27;;;7.57;;
53207;SDS011;39093;52.788;6.940;2023-07-02T00:46:57;18.90;;;7.57;;
53207;SDS011;39093;52.788;6.940;2023-07-02T00:49:24;10.98;;;7.10;;
53207;SDS011;39093;52.788;6.940;2023-07-02T00:51:52;10.85;;;7.05;;
53207;SDS011;39093;52.788;6.940;2023-07-02T00:54:19;11.68;;;7.47;;
53207;SDS011;39093;52.788;6.940;2023-07-02T00:56:46;13.82;;;6.80;;
53207;SDS011;39093;52.788;6.940;2023-07-02T00:59:13;12.50;;;7.43;;
53207;SDS011;39093;52.788;6.940;2023-07-02T01:01:39;9.25;;;7.22;;
53207;SDS011;39093;52.788;6.940;2023-07-02T01:04:07;12.07;;;6.85;;
53207;SDS011;39093;52.788;6.940;2023-07-02T01:06:35;9.48;;;6.20;;
53207;SDS011;39093;52.788;6.940;2023-07-02T01:09:04;11.50;;;6.20;;
53207;SDS011;39093;52.788;6.940;2023-07-02T01:14:05;11.95;;;6.72;;
53207;SDS011;39093;52.788;6.940;2023-07-02T01:16:35;19.42;;;7.18;;
53207;SDS011;39093;52.788;6.940;2023-07-02T01:19:04;13.57;;;6.90;;
53207;SDS011;39093;52.788;6.940;2023-07-02T01:21:34;15.90;;;7.47;;
53207;SDS011;39093;52.788;6.940;2023-07-02T01:24:01;11.50;;;6.22;;
53207;SDS011;39093;52.788;6.940;2023-07-02T01:26:32;11.65;;;6.80;;
53207;SDS011;39093;52.788;6.940;2023-07-02T01:32:03;14.57;;;6.80;;
53207;SDS011;39093;52.788;6.940;2023-07-02T01:34:31;15.68;;;7.05;;
53207;SDS011;39093;52.788;6.940;2023-07-02T01:36:58;13.32;;;6.68;;
53207;SDS011;39093;52.788;6.940;2023-07-02T01:39:25;12.73;;;6.55;;
53207;SDS011;39093;52.788;6.940;2023-07-02T01:41:53;13.73;;;7.07;;
53207;SDS011;39093;52.788;6.940;2023-07-02T01:44:21;18.75;;;7.72;;
53207;SDS011;39093;52.788;6.940;2023-07-02T01:46:48;16.55;;;7.13;;
53207;SDS011;39093;52.788;6.940;2023-07-02T01:49:15;15.88;;;7.85;;
53207;SDS011;39093;52.788;6.940;2023-07-02T01:51:52;14.93;;;6.57;;
53207;SDS011;39093;52.788;6.940;2023-07-02T01:54:21;19.23;;;7.43;;
53207;SDS011;39093;52.788;6.940;2023-07-02T01:56:48;16.95;;;7.18;;
53207;SDS011;39093;52.788;6.940;2023-07-02T01:59:16;14.38;;;7.30;;
53207;SDS011;39093;52.788;6.940;2023-07-02T02:01:46;16.88;;;6.95;;
53207;SDS011;39093;52.788;6.940;2023-07-02T02:04:13;15.90;;;7.63;;
53207;SDS011;39093;52.788;6.940;2023-07-02T02:06:40;20.08;;;7.13;;
53207;SDS011;39093;52.788;6.940;2023-07-02T02:09:07;15.52;;;7.30;;
53207;SDS011;39093;52.788;6.940;2023-07-02T02:11:37;18.00;;;8.02;;
53207;SDS011;39093;52.788;6.940;2023-07-02T02:14:07;13.17;;;6.27;;
53207;SDS011;39093;52.788;6.940;2023-07-02T02:16:34;13.27;;;6.60;;
53207;SDS011;39093;52.788;6.940;2023-07-02T02:19:02;22.42;;;6.85;;
53207;SDS011;39093;52.788;6.940;2023-07-02T02:21:29;14.38;;;7.22;;
53207;SDS011;39093;52.788;6.940;2023-07-02T02:24:00;17.27;;;6.40;;
53207;SDS011;39093;52.788;6.940;2023-07-02T02:26:26;16.88;;;7.60;;
53207;SDS011;39093;52.788;6.940;2023-07-02T02:28:53;18.50;;;7.18;;
53207;SDS011;39093;52.788;6.940;2023-07-02T02:31:20;26.52;;;8.85;;
53207;SDS011;39093;52.788;6.940;2023-07-02T02:33:47;22.77;;;8.50;;
53207;SDS011;39093;52.788;6.940;2023-07-02T02:36:15;19.90;;;8.20;;
53207;SDS011;39093;52.788;6.940;2023-07-02T02:38:43;24.73;;;8.10;;
53207;SDS011;39093;52.788;6.940;2023-07-02T02:41:09;17.65;;;7.53;;
53207;SDS011;39093;52.788;6.940;2023-07-02T02:43:36;29.02;;;9.52;;
53207;SDS011;39093;52.788;6.940;2023-07-02T02:46:07;30.48;;;9.43;;
53207;SDS011;39093;52.788;6.940;2023-07-02T02:48:35;26.23;;;8.77;;
53207;SDS011;39093;52.788;6.940;2023-07-02T02:51:02;25.35;;;8.20;;
53207;SDS011;39093;52.788;6.940;2023-07-02T02:53:29;26.40;;;9.07;;
53207;SDS011;39093;52.788;6.940;2023-07-02T02:55:59;24.10;;;8.60;;
53207;SDS011;39093;52.788;6.940;2023-07-02T02:58:26;21.65;;;8.65;;
53207;SDS011;39093;52.788;6.940;2023-07-02T03:00:57;29.90;;;9.43;;
53207;SDS011;39093;52.788;6.940;2023-07-02T03:03:24;20.42;;;9.18;;
53207;SDS011;39093;52.788;6.940;2023-07-02T03:05:51;25.67;;;9.43;;
53207;SDS011;39093;52.788;6.940;2023-07-02T03:08:18;32.13;;;10.02;;
53207;SDS011;39093;52.788;6.940;2023-07-02T03:10:45;28.92;;;9.80;;
53207;SDS011;39093;52.788;6.940;2023-07-02T03:13:12;26.90;;;9.38;;
53207;SDS011;39093;52.788;6.940;2023-07-02T03:15:39;29.77;;;10.38;;
53207;SDS011;39093;52.788;6.940;2023-07-02T03:18:08;24.10;;;8.93;;
53207;SDS011;39093;52.788;6.940;2023-07-02T03:20:35;26.02;;;10.18;;
53207;SDS011;39093;52.788;6.940;2023-07-02T03:23:02;29.45;;;10.10;;
53207;SDS011;39093;52.788;6.940;2023-07-02T03:25:29;25.58;;;9.38;;
53207;SDS011;39093;52.788;6.940;2023-07-02T03:27:56;22.50;;;8.93;;
53207;SDS011;39093;52.788;6.940;2023-07-02T03:30:23;26.83;;;10.10;;
53207;SDS011;39093;52.788;6.940;2023-07-02T03:32:50;32.63;;;11.27;;
53207;SDS011;39093;52.788;6.940;2023-07-02T03:35:17;22.73;;;10.20;;
53207;SDS011;39093;52.788;6.940;2023-07-02T03:37:44;21.90;;;9.88;;
53207;SDS011;39093;52.788;6.940;2023-07-02T03:40:12;31.35;;;9.90;;
53207;SDS011;39093;52.788;6.940;2023-07-02T03:42:39;38.00;;;11.18;;
53207;SDS011;39093;52.788;6.940;2023-07-02T03:45:09;28.92;;;10.90;;
53207;SDS011;39093;52.788;6.940;2023-07-02T03:47:36;33.03;;;9.90;;
53207;SDS011;39093;52.788;6.940;2023-07-02T03:50:03;27.02;;;10.32;;
53207;SDS011;39093;52.788;6.940;2023-07-02T03:52:30;53.20;;;13.52;;
53207;SDS011;39093;52.788;6.940;2023-07-02T03:54:57;37.00;;;13.02;;
53207;SDS011;39093;52.788;6.940;2023-07-02T03:57:24;31.52;;;10.70;;
53207;SDS011;39093;52.788;6.940;2023-07-02T03:59:52;32.00;;;10.80;;
53207;SDS011;39093;52.788;6.940;2023-07-02T04:02:19;29.42;;;10.07;;
53207;SDS011;39093;52.788;6.940;2023-07-02T04:04:47;33.00;;;10.93;;
53207;SDS011;39093;52.788;6.940;2023-07-02T04:07:14;27.60;;;10.27;;
53207;SDS011;39093;52.788;6.940;2023-07-02T04:09:42;32.22;;;9.88;;
53207;SDS011;39093;52.788;6.940;2023-07-02T04:12:09;43.08;;;11.90;;
53207;SDS011;39093;52.788;6.940;2023-07-02T04:14:36;38.28;;;10.77;;
53207;SDS011;39093;52.788;6.940;2023-07-02T04:17:03;28.33;;;10.35;;
53207;SDS011;39093;52.788;6.940;2023-07-02T04:19:30;31.70;;;11.02;;
53207;SDS011;39093;52.788;6.940;2023-07-02T04:21:57;31.88;;;10.60;;
53207;SDS011;39093;52.788;6.940;2023-07-02T04:24:24;36.83;;;11.05;;
53207;SDS011;39093;52.788;6.940;2023-07-02T04:26:52;35.15;;;11.30;;
53207;SDS011;39093;52.788;6.940;2023-07-02T04:29:40;34.67;;;10.75;;
53207;SDS011;39093;52.788;6.940;2023-07-02T04:32:07;31.17;;;11.35;;
53207;SDS011;39093;52.788;6.940;2023-07-02T04:34:34;32.15;;;10.25;;
53207;SDS011;39093;52.788;6.940;2023-07-02T04:37:05;35.63;;;10.18;;
53207;SDS011;39093;52.788;6.940;2023-07-02T04:39:32;30.10;;;10.30;;
53207;SDS011;39093;52.788;6.940;2023-07-02T04:42:00;33.28;;;10.88;;
53207;SDS011;39093;52.788;6.940;2023-07-02T04:44:27;32.30;;;10.75;;
53207;SDS011;39093;52.788;6.940;2023-07-02T04:47:00;33.50;;;11.50;;
53207;SDS011;39093;52.788;6.940;2023-07-02T04:49:28;32.35;;;12.60;;
53207;SDS011;39093;52.788;6.940;2023-07-02T04:51:55;36.33;;;11.23;;
53207;SDS011;39093;52.788;6.940;2023-07-02T04:54:22;35.88;;;10.43;;
53207;SDS011;39093;52.788;6.940;2023-07-02T04:56:49;31.98;;;11.07;;
53207;SDS011;39093;52.788;6.940;2023-07-02T04:59:17;33.65;;;11.10;;
53207;SDS011;39093;52.788;6.940;2023-07-02T05:01:48;38.90;;;11.48;;
53207;SDS011;39093;52.788;6.940;2023-07-02T05:04:15;30.88;;;10.55;;
53207;SDS011;39093;52.788;6.940;2023-07-02T05:06:42;39.20;;;11.38;;
53207;SDS011;39093;52.788;6.940;2023-07-02T05:09:08;33.55;;;11.40;;
53207;SDS011;39093;52.788;6.940;2023-07-02T05:11:35;39.15;;;11.15;;
53207;SDS011;39093;52.788;6.940;2023-07-02T05:14:02;32.92;;;10.90;;
53207;SDS011;39093;52.788;6.940;2023-07-02T05:16:30;29.50;;;9.88;;
53207;SDS011;39093;52.788;6.940;2023-07-02T05:18:57;32.75;;;11.00;;
53207;SDS011;39093;52.788;6.940;2023-07-02T05:21:24;32.25;;;10.93;;
53207;SDS011;39093;52.788;6.940;2023-07-02T05:23:50;33.65;;;11.05;;
53207;SDS011;39093;52.788;6.940;2023-07-02T05:26:17;27.98;;;10.07;;
53207;SDS011;39093;52.788;6.940;2023-07-02T05:28:44;37.25;;;11.50;;
53207;SDS011;39093;52.788;6.940;2023-07-02T05:31:11;26.65;;;9.45;;
53207;SDS011;39093;52.788;6.940;2023-07-02T05:33:38;31.58;;;11.63;;
53207;SDS011;39093;52.788;6.940;2023-07-02T05:36:05;36.55;;;11.38;;
53207;SDS011;39093;52.788;6.940;2023-07-02T05:38:32;34.15;;;10.82;;
53207;SDS011;39093;52.788;6.940;2023-07-02T05:40:59;31.55;;;10.85;;
53207;SDS011;39093;52.788;6.940;2023-07-02T05:43:26;28.15;;;9.63;;
53207;SDS011;39093;52.788;6.940;2023-07-02T05:45:53;33.88;;;10.80;;
53207;SDS011;39093;52.788;6.940;2023-07-02T05:48:20;28.73;;;10.27;;
53207;SDS011;39093;52.788;6.940;2023-07-02T05:50:47;44.95;;;12.00;;
53207;SDS011;39093;52.788;6.940;2023-07-02T05:53:14;29.75;;;9.23;;
53207;SDS011;39093;52.788;6.940;2023-07-02T05:55:41;32.67;;;10.98;;
53207;SDS011;39093;52.788;6.940;2023-07-02T05:58:09;30.85;;;9.85;;
53207;SDS011;39093;52.788;6.940;2023-07-02T06:00:37;42.83;;;12.35;;
53207;SDS011;39093;52.788;6.940;2023-07-02T06:03:05;26.58;;;10.25;;
53207;SDS011;39093;52.788;6.940;2023-07-02T06:05:32;39.38;;;10.32;;
53207;SDS011;39093;52.788;6.940;2023-07-02T06:07:59;30.58;;;10.60;;
53207;SDS011;39093;52.788;6.940;2023-07-02T06:10:26;32.90;;;10.23;;
53207;SDS011;39093;52.788;6.940;2023-07-02T06:12:53;32.33;;;11.25;;
53207;SDS011;39093;52.788;6.940;2023-07-02T06:15:20;29.30;;;10.00;;
53207;SDS011;39093;52.788;6.940;2023-07-02T06:17:46;26.35;;;10.70;;
53207;SDS011;39093;52.788;6.940;2023-07-02T06:20:13;33.22;;;10.63;;
53207;SDS011;39093;52.788;6.940;2023-07-02T06:22:40;33.60;;;11.27;;
53207;SDS011;39093;52.788;6.940;2023-07-02T06:25:08;30.88;;;11.00;;
53207;SDS011;39093;52.788;6.940;2023-07-02T06:27:35;30.63;;;11.13;;
53207;SDS011;39093;52.788;6.940;2023-07-02T06:30:02;35.28;;;11.05;;
53207;SDS011;39093;52.788;6.940;2023-07-02T06:32:29;32.28;;;10.18;;
53207;SDS011;39093;52.788;6.940;2023-07-02T06:34:56;27.13;;;10.30;;
53207;SDS011;39093;52.788;6.940;2023-07-02T06:37:23;31.08;;;9.48;;
53207;SDS011;39093;52.788;6.940;2023-07-02T06:39:50;27.35;;;9.20;;
53207;SDS011;39093;52.788;6.940;2023-07-02T06:42:17;30.92;;;10.82;;
53207;SDS011;39093;52.788;6.940;2023-07-02T06:44:44;32.83;;;10.30;;
53207;SDS011;39093;52.788;6.940;2023-07-02T06:47:11;31.13;;;9.45;;
53207;SDS011;39093;52.788;6.940;2023-07-02T06:49:38;26.85;;;10.52;;
53207;SDS011;39093;52.788;6.940;2023-07-02T06:52:07;24.13;;;9.30;;
53207;SDS011;39093;52.788;6.940;2023-07-02T06:54:34;28.58;;;9.48;;
53207;SDS011;39093;52.788;6.940;2023-07-02T06:57:01;26.88;;;8.80;;
53207;SDS011;39093;52.788;6.940;2023-07-02T06:59:28;25.33;;;9.20;;
53207;SDS011;39093;52.788;6.940;2023-07-02T07:01:57;27.80;;;8.82;;
53207;SDS011;39093;52.788;6.940;2023-07-02T07:04:24;30.50;;;9.30;;
53207;SDS011;39093;52.788;6.940;2023-07-02T07:06:51;23.25;;;8.65;;
53207;SDS011;39093;52.788;6.940;2023-07-02T07:09:18;23.25;;;8.85;;
53207;SDS011;39093;52.788;6.940;2023-07-02T07:11:45;31.85;;;8.48;;
53207;SDS011;39093;52.788;6.940;2023-07-02T07:14:12;24.17;;;7.65;;
53207;SDS011;39093;52.788;6.940;2023-07-02T07:16:39;23.08;;;8.15;;
53207;SDS011;39093;52.788;6.940;2023-07-02T07:19:08;23.85;;;8.32;;
53207;SDS011;39093;52.788;6.940;2023-07-02T07:21:35;26.05;;;7.63;;
53207;SDS011;39093;52.788;6.940;2023-07-02T07:24:01;25.08;;;9.00;;
53207;SDS011;39093;52.788;6.940;2023-07-02T07:26:28;17.73;;;7.68;;
53207;SDS011;39093;52.788;6.940;2023-07-02T07:28:55;17.02;;;6.68;;
53207;SDS011;39093;52.788;6.940;2023-07-02T07:31:24;15.75;;;7.10;;
53207;SDS011;39093;52.788;6.940;2023-07-02T07:33:51;20.52;;;7.18;;
53207;SDS011;39093;52.788;6.940;2023-07-02T07:36:20;19.40;;;7.00;;
53207;SDS011;39093;52.788;6.940;2023-07-02T07:38:47;21.35;;;7.10;;
53207;SDS011;39093;52.788;6.940;2023-07-02T07:41:14;20.45;;;7.32;;
53207;SDS011;39093;52.788;6.940;2023-07-02T07:43:41;22.30;;;6.85;;
53207;SDS011;39093;52.788;6.940;2023-07-02T07:46:08;18.55;;;7.70;;
53207;SDS011;39093;52.788;6.940;2023-07-02T07:48:35;23.58;;;6.82;;
53207;SDS011;39093;52.788;6.940;2023-07-02T07:51:02;15.38;;;6.85;;
53207;SDS011;39093;52.788;6.940;2023-07-02T07:53:29;19.15;;;6.97;;
53207;SDS011;39093;52.788;6.940;2023-07-02T07:55:59;23.50;;;7.20;;
53207;SDS011;39093;52.788;6.940;2023-07-02T07:58:26;24.02;;;7.25;;
53207;SDS011;39093;52.788;6.940;2023-07-02T08:00:55;25.95;;;7.07;;
53207;SDS011;39093;52.788;6.940;2023-07-02T08:03:22;18.92;;;6.45;;
53207;SDS011;39093;52.788;6.940;2023-07-02T08:05:49;21.98;;;7.07;;
53207;SDS011;39093;52.788;6.940;2023-07-02T08:08:16;20.30;;;7.30;;
53207;SDS011;39093;52.788;6.940;2023-07-02T08:10:43;14.90;;;6.82;;
53207;SDS011;39093;52.788;6.940;2023-07-02T08:13:12;20.23;;;7.93;;
53207;SDS011;39093;52.788;6.940;2023-07-02T08:15:39;19.85;;;7.07;;
53207;SDS011;39093;52.788;6.940;2023-07-02T08:18:10;16.05;;;6.47;;
53207;SDS011;39093;52.788;6.940;2023-07-02T08:20:39;15.98;;;6.20;;
53207;SDS011;39093;52.788;6.940;2023-07-02T08:23:09;16.15;;;5.55;;
53207;SDS011;39093;52.788;6.940;2023-07-02T08:25:36;12.60;;;5.15;;
53207;SDS011;39093;52.788;6.940;2023-07-02T08:28:03;17.70;;;5.40;;
53207;SDS011;39093;52.788;6.940;2023-07-02T08:30:29;13.52;;;5.18;;
53207;SDS011;39093;52.788;6.940;2023-07-02T08:32:56;19.13;;;5.80;;
53207;SDS011;39093;52.788;6.940;2023-07-02T08:35:24;11.50;;;5.30;;
53207;SDS011;39093;52.788;6.940;2023-07-02T08:37:50;15.20;;;4.65;;
53207;SDS011;39093;52.788;6.940;2023-07-02T08:40:18;17.83;;;5.30;;
53207;SDS011;39093;52.788;6.940;2023-07-02T08:42:46;20.35;;;4.38;;
53207;SDS011;39093;52.788;6.940;2023-07-02T08:45:17;15.88;;;5.10;;
53207;SDS011;39093;52.788;6.940;2023-07-02T08:47:44;16.85;;;5.25;;
53207;SDS011;39093;52.788;6.940;2023-07-02T08:50:13;11.45;;;4.93;;
53207;SDS011;39093;52.788;6.940;2023-07-02T08:52:40;16.65;;;5.00;;
53207;SDS011;39093;52.788;6.940;2023-07-02T08:55:09;14.05;;;4.43;;
53207;SDS011;39093;52.788;6.940;2023-07-02T08:57:36;10.65;;;3.75;;
53207;SDS011;39093;52.788;6.940;2023-07-02T09:00:09;9.63;;;3.92;;
53207;SDS011;39093;52.788;6.940;2023-07-02T09:02:37;13.88;;;3.03;;
53207;SDS011;39093;52.788;6.940;2023-07-02T09:05:04;12.70;;;3.97;;
53207;SDS011;39093;52.788;6.940;2023-07-02T09:07:47;9.63;;;2.88;;
53207;SDS011;39093;52.788;6.940;2023-07-02T09:10:26;15.75;;;4.15;;
53207;SDS011;39093;52.788;6.940;2023-07-02T09:13:07;11.50;;;3.70;;
53207;SDS011;39093;52.788;6.940;2023-07-02T09:15:37;11.10;;;3.90;;
53207;SDS011;39093;52.788;6.940;2023-07-02T09:20:41;17.35;;;3.90;;
53207;SDS011;39093;52.788;6.940;2023-07-02T09:23:08;12.55;;;4.22;;
53207;SDS011;39093;52.788;6.940;2023-07-02T09:25:39;14.27;;;4.30;;
53207;SDS011;39093;52.788;6.940;2023-07-02T09:28:22;14.82;;;4.72;;
53207;SDS011;39093;52.788;6.940;2023-07-02T09:30:50;13.20;;;3.85;;
53207;SDS011;39093;52.788;6.940;2023-07-02T09:33:18;10.32;;;3.92;;
53207;SDS011;39093;52.788;6.940;2023-07-02T09:35:46;9.85;;;4.25;;
53207;SDS011;39093;52.788;6.940;2023-07-02T09:38:13;13.80;;;4.05;;
53207;SDS011;39093;52.788;6.940;2023-07-02T09:40:49;13.75;;;4.38;;
53207;SDS011;39093;52.788;6.940;2023-07-02T09:43:18;13.45;;;4.05;;
53207;SDS011;39093;52.788;6.940;2023-07-02T09:45:46;14.10;;;4.45;;
53207;SDS011;39093;52.788;6.940;2023-07-02T09:48:17;15.93;;;4.65;;
53207;SDS011;39093;52.788;6.940;2023-07-02T09:50:49;10.18;;;4.13;;
53207;SDS011;39093;52.788;6.940;2023-07-02T09:53:17;12.18;;;4.65;;
53207;SDS011;39093;52.788;6.940;2023-07-02T09:55:44;12.13;;;4.00;;
53207;SDS011;39093;52.788;6.940;2023-07-02T09:58:11;16.05;;;4.72;;
53207;SDS011;39093;52.788;6.940;2023-07-02T10:00:38;9.93;;;4.13;;
53207;SDS011;39093;52.788;6.940;2023-07-02T10:03:07;15.80;;;4.70;;
53207;SDS011;39093;52.788;6.940;2023-07-02T10:05:34;14.15;;;4.25;;
53207;SDS011;39093;52.788;6.940;2023-07-02T10:08:14;15.65;;;4.63;;
53207;SDS011;39093;52.788;6.940;2023-07-02T10:10:45;12.30;;;4.55;;
53207;SDS011;39093;52.788;6.940;2023-07-02T10:13:12;13.45;;;4.85;;
53207;SDS011;39093;52.788;6.940;2023-07-02T10:15:39;15.18;;;4.95;;
53207;SDS011;39093;52.788;6.940;2023-07-02T10:18:07;15.73;;;4.95;;
53207;SDS011;39093;52.788;6.940;2023-07-02T10:20:40;11.32;;;4.20;;
53207;SDS011;39093;52.788;6.940;2023-07-02T10:23:08;17.77;;;5.28;;
53207;SDS011;39093;52.788;6.940;2023-07-02T10:25:36;9.43;;;3.90;;
53207;SDS011;39093;52.788;6.940;2023-07-02T10:28:18;17.38;;;4.68;;
53207;SDS011;39093;52.788;6.940;2023-07-02T10:30:48;15.55;;;4.95;;
53207;SDS011;39093;52.788;6.940;2023-07-02T10:33:16;15.40;;;4.68;;
53207;SDS011;39093;52.788;6.940;2023-07-02T10:35:45;11.93;;;4.57;;
53207;SDS011;39093;52.788;6.940;2023-07-02T10:40:54;12.55;;;4.47;;
53207;SDS011;39093;52.788;6.940;2023-07-02T10:43:29;11.35;;;4.25;;
53207;SDS011;39093;52.788;6.940;2023-07-02T10:45:58;14.00;;;4.57;;
53207;SDS011;39093;52.788;6.940;2023-07-02T10:48:28;13.52;;;4.65;;
53207;SDS011;39093;52.788;6.940;2023-07-02T10:50:56;17.60;;;4.93;;
53207;SDS011;39093;52.788;6.940;2023-07-02T10:53:23;11.93;;;4.75;;
53207;SDS011;39093;52.788;6.940;2023-07-02T10:55:53;14.75;;;4.60;;
53207;SDS011;39093;52.788;6.940;2023-07-02T10:58:23;13.52;;;4.55;;
53207;SDS011;39093;52.788;6.940;2023-07-02T11:00:52;14.73;;;4.60;;
53207;SDS011;39093;52.788;6.940;2023-07-02T11:03:20;15.52;;;5.00;;
53207;SDS011;39093;52.788;6.940;2023-07-02T11:05:49;20.92;;;4.95;;
53207;SDS011;39093;52.788;6.940;2023-07-02T11:08:18;18.00;;;5.13;;
53207;SDS011;39093;52.788;6.940;2023-07-02T11:10:47;14.20;;;5.00;;
53207;SDS011;39093;52.788;6.940;2023-07-02T11:13:15;16.85;;;5.07;;
53207;SDS011;39093;52.788;6.940;2023-07-02T11:15:43;16.35;;;6.38;;
53207;SDS011;39093;52.788;6.940;2023-07-02T11:18:15;13.77;;;4.63;;
53207;SDS011;39093;52.788;6.940;2023-07-02T11:20:44;15.25;;;4.63;;
53207;SDS011;39093;52.788;6.940;2023-07-02T11:25:55;15.75;;;4.70;;
53207;SDS011;39093;52.788;6.940;2023-07-02T11:28:24;16.23;;;4.97;;
53207;SDS011;39093;52.788;6.940;2023-07-02T11:30:51;13.90;;;4.65;;
53207;SDS011;39093;52.788;6.940;2023-07-02T11:33:20;16.23;;;5.65;;
53207;SDS011;39093;52.788;6.940;2023-07-02T11:35:58;11.45;;;4.43;;
53207;SDS011;39093;52.788;6.940;2023-07-02T11:38:25;18.00;;;4.88;;
53207;SDS011;39093;52.788;6.940;2023-07-02T11:40:53;14.88;;;5.88;;
53207;SDS011;39093;52.788;6.940;2023-07-02T11:43:20;17.40;;;6.05;;
53207;SDS011;39093;52.788;6.940;2023-07-02T11:45:47;16.63;;;5.35;;
53207;SDS011;39093;52.788;6.940;2023-07-02T11:48:15;16.30;;;5.05;;
53207;SDS011;39093;52.788;6.940;2023-07-02T11:50:41;12.07;;;4.60;;
53207;SDS011;39093;52.788;6.940;2023-07-02T11:53:08;16.52;;;5.50;;
53207;SDS011;39093;52.788;6.940;2023-07-02T11:55:37;14.80;;;4.88;;
53207;SDS011;39093;52.788;6.940;2023-07-02T11:58:05;17.55;;;4.63;;
53207;SDS011;39093;52.788;6.940;2023-07-02T12:00:32;10.60;;;4.10;;
53207;SDS011;39093;52.788;6.940;2023-07-02T12:02:59;13.82;;;4.13;;
53207;SDS011;39093;52.788;6.940;2023-07-02T12:05:26;15.65;;;4.22;;
53207;SDS011;39093;52.788;6.940;2023-07-02T12:07:52;10.93;;;4.50;;
53207;SDS011;39093;52.788;6.940;2023-07-02T12:10:19;13.75;;;4.20;;
53207;SDS011;39093;52.788;6.940;2023-07-02T12:12:46;11.93;;;3.67;;
53207;SDS011;39093;52.788;6.940;2023-07-02T12:15:13;10.65;;;3.20;;
53207;SDS011;39093;52.788;6.940;2023-07-02T12:17:40;9.77;;;3.63;;
53207;SDS011;39093;52.788;6.940;2023-07-02T12:20:09;7.18;;;3.13;;
53207;SDS011;39093;52.788;6.940;2023-07-02T12:22:36;10.73;;;3.20;;
53207;SDS011;39093;52.788;6.940;2023-07-02T12:25:03;10.88;;;3.75;;
53207;SDS011;39093;52.788;6.940;2023-07-02T12:27:31;10.43;;;4.22;;
53207;SDS011;39093;52.788;6.940;2023-07-02T12:29:58;10.32;;;3.38;;
53207;SDS011;39093;52.788;6.940;2023-07-02T12:32:26;9.02;;;3.45;;
53207;SDS011;39093;52.788;6.940;2023-07-02T12:34:53;11.90;;;4.10;;
53207;SDS011;39093;52.788;6.940;2023-07-02T12:37:20;7.68;;;2.97;;
53207;SDS011;39093;52.788;6.940;2023-07-02T12:39:47;12.18;;;3.45;;
53207;SDS011;39093;52.788;6.940;2023-07-02T12:42:14;7.13;;;3.15;;
53207;SDS011;39093;52.788;6.940;2023-07-02T12:44:41;8.95;;;3.63;;
53207;SDS011;39093;52.788;6.940;2023-07-02T12:47:08;10.55;;;3.42;;
53207;SDS011;39093;52.788;6.940;2023-07-02T12:49:35;7.28;;;3.38;;
53207;SDS011;39093;52.788;6.940;2023-07-02T12:52:02;8.57;;;3.45;;
53207;SDS011;39093;52.788;6.940;2023-07-02T12:54:29;10.85;;;4.85;;
53207;SDS011;39093;52.788;6.940;2023-07-02T12:56:57;21.73;;;4.88;;
53207;SDS011;39093;52.788;6.940;2023-07-02T12:59:23;7.38;;;3.50;;
53207;SDS011;39093;52.788;6.940;2023-07-02T13:01:53;14.50;;;4.57;;
53207;SDS011;39093;52.788;6.940;2023-07-02T13:04:20;7.53;;;3.10;;
53207;SDS011;39093;52.788;6.940;2023-07-02T13:06:47;7.53;;;3.30;;
53207;SDS011;39093;52.788;6.940;2023-07-02T13:09:14;10.40;;;3.70;;
53207;SDS011;39093;52.788;6.940;2023-07-02T13:11:41;12.57;;;3.65;;
53207;SDS011;39093;52.788;6.940;2023-07-02T13:14:08;10.13;;;4.03;;
53207;SDS011;39093;52.788;6.940;2023-07-02T13:16:35;14.88;;;5.10;;
53207;SDS011;39093;52.788;6.940;2023-07-02T13:19:02;28.15;;;16.80;;
53207;SDS011;39093;52.788;6.940;2023-07-02T13:21:29;10.90;;;4.93;;
53207;SDS011;39093;52.788;6.940;2023-07-02T13:23:58;13.75;;;4.22;;
53207;SDS011;39093;52.788;6.940;2023-07-02T13:26:28;11.48;;;4.75;;
53207;SDS011;39093;52.788;6.940;2023-07-02T13:28:55;9.63;;;4.72;;
53207;SDS011;39093;52.788;6.940;2023-07-02T13:31:22;8.88;;;3.53;;
53207;SDS011;39093;52.788;6.940;2023-07-02T13:33:50;6.95;;;3.58;;
53207;SDS011;39093;52.788;6.940;2023-07-02T13:36:17;12.88;;;7.05;;
53207;SDS011;39093;52.788;6.940;2023-07-02T13:38:44;16.42;;;10.00;;
53207;SDS011;39093;52.788;6.940;2023-07-02T13:41:10;21.20;;;13.02;;
53207;SDS011;39093;52.788;6.940;2023-07-02T13:43:37;9.68;;;4.80;;
53207;SDS011;39093;52.788;6.940;2023-07-02T13:46:05;18.27;;;10.35;;
53207;SDS011;39093;52.788;6.940;2023-07-02T13:48:35;14.57;;;5.05;;
53207;SDS011;39093;52.788;6.940;2023-07-02T13:51:06;14.48;;;4.50;;
53207;SDS011;39093;52.788;6.940;2023-07-02T13:53:34;13.77;;;6.75;;
53207;SDS011;39093;52.788;6.940;2023-07-02T13:56:04;13.82;;;8.18;;
53207;SDS011;39093;52.788;6.940;2023-07-02T13:58:58;12.55;;;4.82;;
53207;SDS011;39093;52.788;6.940;2023-07-02T14:01:26;17.02;;;5.25;;
53207;SDS011;39093;52.788;6.940;2023-07-02T14:03:56;18.80;;;12.43;;
53207;SDS011;39093;52.788;6.940;2023-07-02T14:06:23;14.05;;;8.05;;
53207;SDS011;39093;52.788;6.940;2023-07-02T14:08:51;15.85;;;5.97;;
53207;SDS011;39093;52.788;6.940;2023-07-02T14:11:18;10.35;;;5.28;;
53207;SDS011;39093;52.788;6.940;2023-07-02T14:13:46;13.23;;;6.45;;
53207;SDS011;39093;52.788;6.940;2023-07-02T14:16:13;11.10;;;5.07;;
53207;SDS011;39093;52.788;6.940;2023-07-02T14:18:41;12.68;;;4.80;;
53207;SDS011;39093;52.788;6.940;2023-07-02T14:21:08;18.83;;;5.47;;
53207;SDS011;39093;52.788;6.940;2023-07-02T14:23:35;12.35;;;4.50;;
53207;SDS011;39093;52.788;6.940;2023-07-02T14:26:05;13.10;;;4.28;;
53207;SDS011;39093;52.788;6.940;2023-07-02T14:28:32;13.13;;;4.30;;
53207;SDS011;39093;52.788;6.940;2023-07-02T14:30:59;11.55;;;4.72;;
53207;SDS011;39093;52.788;6.940;2023-07-02T14:33:28;13.88;;;4.90;;
53207;SDS011;39093;52.788;6.940;2023-07-02T14:35:57;9.00;;;3.92;;
53207;SDS011;39093;52.788;6.940;2023-07-02T14:38:27;13.32;;;4.88;;
53207;SDS011;39093;52.788;6.940;2023-07-02T14:40:57;15.20;;;5.13;;
53207;SDS011;39093;52.788;6.940;2023-07-02T14:43:25;10.68;;;4.70;;
53207;SDS011;39093;52.788;6.940;2023-07-02T14:45:54;16.85;;;4.78;;
53207;SDS011;39093;52.788;6.940;2023-07-02T14:48:24;15.05;;;6.45;;
53207;SDS011;39093;52.788;6.940;2023-07-02T14:50:53;12.05;;;4.70;;